createdAt,value
2017-01-28T00:00:06.147Z,82.73
2017-01-28T00:00:47.913Z,82.35
2017-01-28T00:03:03.292Z,83.02
2017-01-28T00:03:44.839Z,82.83
2017-01-28T00:04:26.457Z,82.73
2017-01-28T00:06:15.893Z,82.73
2017-01-28T00:06:57.667Z,82.35
2017-01-28T00:07:39.323Z,82.26
2017-01-28T00:09:59.989Z,82.92
2017-01-28T00:10:41.717Z,82.83
2017-01-28T00:11:23.264Z,82.07
2017-01-28T00:12:05.003Z,82.54
2017-01-28T00:12:46.768Z,82.54
2017-01-28T00:13:28.456Z,82.83
2017-01-28T00:14:10.048Z,82.26
2017-01-28T00:14:51.833Z,82.54
2017-01-28T00:15:33.581Z,82.54
2017-01-28T00:16:15.351Z,82.35
2017-01-28T00:16:56.893Z,82.54
2017-01-28T00:17:38.561Z,82.45
2017-01-28T00:19:28.009Z,82.26
2017-01-28T00:20:09.751Z,82.45
2017-01-28T00:20:51.495Z,82.35
2017-01-28T00:21:33.175Z,82.54
2017-01-28T00:22:14.886Z,82.54
2017-01-28T00:22:56.624Z,82.45
2017-01-28T00:23:38.353Z,82.26
2017-01-28T00:24:20.094Z,82.54
2017-01-28T00:25:01.721Z,81.88
2017-01-28T00:25:43.410Z,81.7
2017-01-28T00:26:25.109Z,82.17
2017-01-28T00:27:06.822Z,81.6
2017-01-28T00:27:48.572Z,81.7
2017-01-28T00:28:30.338Z,81.7
2017-01-28T00:29:12.157Z,82.54
2017-01-28T00:29:53.936Z,82.07
2017-01-28T00:30:35.500Z,82.64
2017-01-28T00:31:17.158Z,82.54
2017-01-28T00:31:58.897Z,81.88
2017-01-28T00:34:19.654Z,82.54
2017-01-28T00:36:35.147Z,81.98
2017-01-28T00:37:16.908Z,82.17
2017-01-28T00:37:58.606Z,82.07
2017-01-28T00:38:40.339Z,82.07
2017-01-28T00:39:22.040Z,82.07
2017-01-28T00:41:37.477Z,82.17
2017-01-28T00:42:19.088Z,82.17
2017-01-28T00:44:34.416Z,81.79
2017-01-28T00:45:16.162Z,81.88
2017-01-28T00:45:57.914Z,81.79
2017-01-28T00:46:39.680Z,81.6
2017-01-28T00:49:00.349Z,82.07
2017-01-28T00:49:42.083Z,81.7
2017-01-28T00:50:23.676Z,81.88
2017-01-28T00:52:23.694Z,81.41
2017-01-28T00:53:05.312Z,81.32
2017-01-28T00:53:47.003Z,81.32
2017-01-28T00:54:28.646Z,81.6
2017-01-28T00:55:10.350Z,81.51
2017-01-28T00:55:52.002Z,81.32
2017-01-28T00:56:33.636Z,81.22
2017-01-28T00:57:15.350Z,81.32
2017-01-28T00:57:57.051Z,81.32
2017-01-28T00:58:38.916Z,81.32
2017-01-28T00:59:20.672Z,81.32
2017-01-28T01:00:02.335Z,81.41
2017-01-28T01:00:43.545Z,81.51
2017-01-28T01:01:25.037Z,81.22
2017-01-28T01:02:06.608Z,81.6
2017-01-28T01:02:48.233Z,81.51
2017-01-28T01:03:29.899Z,81.6
2017-01-28T01:04:11.646Z,81.6
2017-01-28T01:04:53.315Z,81.7
2017-01-28T01:05:34.840Z,81.7
2017-01-28T01:06:16.593Z,81.32
2017-01-28T01:08:37.233Z,81.32
2017-01-28T01:09:19.062Z,81.88
2017-01-28T01:10:00.694Z,81.79
2017-01-28T01:10:42.279Z,81.6
2017-01-28T01:12:31.680Z,81.7
2017-01-28T01:13:13.308Z,81.51
2017-01-28T01:13:55.074Z,82.17
2017-01-28T01:14:36.662Z,81.79
2017-01-28T01:15:18.303Z,82.07
2017-01-28T01:16:00.049Z,81.98
2017-01-28T01:16:41.685Z,82.07
2017-01-28T01:17:23.393Z,82.07
2017-01-28T01:19:38.810Z,81.79
2017-01-28T01:20:20.552Z,81.51
2017-01-28T01:21:02.303Z,81.41
2017-01-28T01:21:44.088Z,81.51
2017-01-28T01:22:25.831Z,81.32
2017-01-28T01:23:07.590Z,81.32
2017-01-28T01:23:49.357Z,81.22
2017-01-28T01:24:31.097Z,81.22
2017-01-28T01:25:12.853Z,81.41
2017-01-28T01:25:54.398Z,81.41
2017-01-28T01:26:36.116Z,81.41
2017-01-28T01:27:17.861Z,81.41
2017-01-28T01:27:59.625Z,81.41
2017-01-28T01:28:41.402Z,81.41
2017-01-28T01:29:23.176Z,81.32
2017-01-28T01:30:04.756Z,81.41
2017-01-28T01:31:55.195Z,81.41
2017-01-28T01:35:28.898Z,81.51
2017-01-28T01:36:10.367Z,81.51
2017-01-28T01:36:52.190Z,81.22
2017-01-28T01:37:33.884Z,81.13
2017-01-28T01:38:15.638Z,81.41
2017-01-28T01:40:30.950Z,81.32
2017-01-28T01:41:12.670Z,81.22
2017-01-28T01:41:53.980Z,81.32
2017-01-28T01:42:35.632Z,81.41
2017-01-28T01:44:25.000Z,81.51
2017-01-28T01:46:40.305Z,81.32
2017-01-28T01:48:55.688Z,81.41
2017-01-28T01:49:37.444Z,81.51
2017-01-28T01:50:19.138Z,81.79
2017-01-28T01:51:00.908Z,81.88
2017-01-28T01:51:42.525Z,81.98
2017-01-28T01:52:24.257Z,81.6
2017-01-28T01:53:06.067Z,81.7
2017-01-28T01:53:47.623Z,81.98
2017-01-28T01:54:29.280Z,82.17
2017-01-28T01:55:10.904Z,81.7
2017-01-28T01:55:52.689Z,81.88
2017-01-28T01:56:34.473Z,81.79
2017-01-28T01:57:16.150Z,81.41
2017-01-28T01:57:57.902Z,81.7
2017-01-28T01:59:52.215Z,81.79
2017-01-28T02:00:32.747Z,81.7
2017-01-28T02:01:13.277Z,81.79
2017-01-28T02:01:53.800Z,81.88
2017-01-28T02:02:34.329Z,81.7
2017-01-28T02:03:14.858Z,81.7
2017-01-28T02:03:55.385Z,81.7
2017-01-28T02:04:35.930Z,81.79
2017-01-28T02:05:16.458Z,81.7
2017-01-28T02:05:56.992Z,81.7
2017-01-28T02:06:37.617Z,81.79
2017-01-28T02:07:18.143Z,81.79
2017-01-28T02:07:58.689Z,81.7
2017-01-28T02:08:39.212Z,81.88
2017-01-28T02:09:19.742Z,81.41
2017-01-28T02:10:00.265Z,81.41
2017-01-28T02:10:40.803Z,81.51
2017-01-28T02:11:21.330Z,81.88
2017-01-28T02:12:01.852Z,81.88
2017-01-28T02:12:42.376Z,82.07
2017-01-28T02:13:22.914Z,81.6
2017-01-28T02:14:03.447Z,81.88
2017-01-28T02:14:43.976Z,81.98
2017-01-28T02:15:24.498Z,81.79
2017-01-28T02:16:05.028Z,81.7
2017-01-28T02:16:45.563Z,81.41
2017-01-28T02:17:26.096Z,81.79
2017-01-28T02:18:06.635Z,81.7
2017-01-28T02:18:47.171Z,81.88
2017-01-28T02:19:27.700Z,81.98
2017-01-28T02:20:08.231Z,81.79
2017-01-28T02:20:48.788Z,81.88
2017-01-28T02:21:29.319Z,81.6
2017-01-28T02:22:09.850Z,81.88
2017-01-28T02:22:50.383Z,81.88
2017-01-28T02:23:30.908Z,81.88
2017-01-28T02:24:11.459Z,81.88
2017-01-28T02:24:51.970Z,81.7
2017-01-28T02:25:32.501Z,81.79
2017-01-28T02:26:13.051Z,82.07
2017-01-28T02:26:53.557Z,81.98
2017-01-28T02:27:34.093Z,81.7
2017-01-28T02:28:14.629Z,81.88
2017-01-28T02:28:55.165Z,81.32
2017-01-28T02:29:35.700Z,81.32
2017-01-28T02:30:16.229Z,81.6
2017-01-28T02:30:56.760Z,81.51
2017-01-28T02:31:37.280Z,81.51
2017-01-28T02:32:17.812Z,81.6
2017-01-28T02:32:58.353Z,81.6
2017-01-28T02:33:38.886Z,81.6
2017-01-28T02:34:19.418Z,81.22
2017-01-28T02:34:59.950Z,81.03
2017-01-28T02:35:40.478Z,81.03
2017-01-28T02:36:21.010Z,80.84
2017-01-28T02:37:01.540Z,80.75
2017-01-28T02:37:42.079Z,80.75
2017-01-28T02:38:22.603Z,80.94
2017-01-28T02:39:03.135Z,80.75
2017-01-28T02:39:43.673Z,81.13
2017-01-28T02:40:24.207Z,80.56
2017-01-28T02:41:04.752Z,81.03
2017-01-28T02:41:45.290Z,81.03
2017-01-28T02:42:25.819Z,80.65
2017-01-28T02:43:06.353Z,81.03
2017-01-28T02:43:46.888Z,80.94
2017-01-28T02:44:27.421Z,80.75
2017-01-28T02:45:07.964Z,81.03
2017-01-28T02:45:48.499Z,80.84
2017-01-28T02:46:29.028Z,81.13
2017-01-28T02:47:09.558Z,80.75
2017-01-28T02:47:50.092Z,80.94
2017-01-28T02:48:30.629Z,80.56
2017-01-28T02:49:11.165Z,80.75
2017-01-28T02:49:51.687Z,80.56
2017-01-28T02:50:32.207Z,80.94
2017-01-28T02:51:12.739Z,80.94
2017-01-28T02:51:53.272Z,80.56
2017-01-28T02:52:33.828Z,80.75
2017-01-28T02:53:14.326Z,81.03
2017-01-28T02:53:54.858Z,80.56
2017-01-28T02:54:35.384Z,80.75
2017-01-28T02:55:15.913Z,80.75
2017-01-28T02:55:56.447Z,80.27
2017-01-28T02:56:36.979Z,80.27
2017-01-28T02:57:17.508Z,80.56
2017-01-28T02:57:58.031Z,80.46
2017-01-28T02:58:38.553Z,80.46
2017-01-28T02:59:19.099Z,80.56
2017-01-28T02:59:59.657Z,80.08
2017-01-28T03:00:40.196Z,80.18
2017-01-28T03:01:20.696Z,80.08
2017-01-28T03:02:01.230Z,80.37
2017-01-28T03:02:41.760Z,80.27
2017-01-28T03:03:22.296Z,79.99
2017-01-28T03:04:02.828Z,80.27
2017-01-28T03:04:43.363Z,80.46
2017-01-28T03:05:23.890Z,80.37
2017-01-28T03:06:04.427Z,80.56
2017-01-28T03:06:44.956Z,80.56
2017-01-28T03:07:25.488Z,80.56
2017-01-28T03:08:06.023Z,80.56
2017-01-28T03:08:46.572Z,80.46
2017-01-28T03:09:27.100Z,80.37
2017-01-28T03:10:07.634Z,80.37
2017-01-28T03:10:48.164Z,80.56
2017-01-28T03:11:28.689Z,80.27
2017-01-28T03:12:09.222Z,80.37
2017-01-28T03:12:49.764Z,80.56
2017-01-28T03:13:30.292Z,80.94
2017-01-28T03:14:10.824Z,80.75
2017-01-28T03:14:51.358Z,80.75
2017-01-28T03:15:31.890Z,80.56
2017-01-28T03:16:12.427Z,80.65
2017-01-28T03:16:52.954Z,80.94
2017-01-28T03:17:33.487Z,81.13
2017-01-28T03:18:14.014Z,80.94
2017-01-28T03:18:54.543Z,81.13
2017-01-28T03:19:35.078Z,80.94
2017-01-28T03:20:15.598Z,80.94
2017-01-28T03:20:56.134Z,81.03
2017-01-28T03:21:36.650Z,80.94
2017-01-28T03:22:17.178Z,80.84
2017-01-28T03:22:57.709Z,81.13
2017-01-28T03:23:38.239Z,81.13
2017-01-28T03:24:18.774Z,81.03
2017-01-28T03:24:59.299Z,80.75
2017-01-28T03:25:39.837Z,80.75
2017-01-28T03:26:20.361Z,80.56
2017-01-28T03:27:00.894Z,80.94
2017-01-28T03:27:41.421Z,80.75
2017-01-28T03:28:21.948Z,80.18
2017-01-28T03:29:02.477Z,80.56
2017-01-28T03:29:43.007Z,80.65
2017-01-28T03:30:23.541Z,80.56
2017-01-28T03:31:04.070Z,80.08
2017-01-28T03:31:44.598Z,80.37
2017-01-28T03:32:25.128Z,80.37
2017-01-28T03:33:05.656Z,79.99
2017-01-28T03:33:46.193Z,80.08
2017-01-28T03:34:26.724Z,80.08
2017-01-28T03:35:07.253Z,79.52
2017-01-28T03:35:47.781Z,79.71
2017-01-28T03:36:28.309Z,79.8
2017-01-28T03:37:08.846Z,79.9
2017-01-28T03:37:49.363Z,79.71
2017-01-28T03:38:29.884Z,79.61
2017-01-28T03:39:10.428Z,79.05
2017-01-28T03:39:50.973Z,79.43
2017-01-28T03:40:31.482Z,78.86
2017-01-28T03:41:12.007Z,79.05
2017-01-28T03:41:52.534Z,79.05
2017-01-28T03:42:33.068Z,78.58
2017-01-28T03:43:13.608Z,78.58
2017-01-28T03:43:54.133Z,78.58
2017-01-28T03:44:34.665Z,78.58
2017-01-28T03:45:15.191Z,78.86
2017-01-28T03:45:55.721Z,78.1
2017-01-28T03:46:36.255Z,78.58
2017-01-28T03:47:16.786Z,78.01
2017-01-28T03:47:57.298Z,78.48
2017-01-28T03:48:37.826Z,78.01
2017-01-28T03:49:18.358Z,78.2
2017-01-28T03:49:58.895Z,77.82
2017-01-28T03:50:39.414Z,78.01
2017-01-28T03:51:19.950Z,77.44
2017-01-28T03:52:00.478Z,78.01
2017-01-28T03:52:41.012Z,77.34
2017-01-28T03:53:21.545Z,77.53
2017-01-28T03:54:02.082Z,77.25
2017-01-28T03:54:42.611Z,77.06
2017-01-28T03:55:23.145Z,76.78
2017-01-28T03:56:03.670Z,76.4
2017-01-28T03:56:44.205Z,76.02
2017-01-28T03:57:24.719Z,76.4
2017-01-28T03:58:05.262Z,76.59
2017-01-28T03:58:45.778Z,76.87
2017-01-28T03:59:26.309Z,76.31
2017-01-28T04:00:06.841Z,76.31
2017-01-28T04:00:47.368Z,76.21
2017-01-28T04:01:27.898Z,76.4
2017-01-28T04:02:08.425Z,76.82
2017-01-28T04:02:48.952Z,76.31
2017-01-28T04:03:29.476Z,76.15
2017-01-28T04:04:10.017Z,76.31
2017-01-28T04:04:50.581Z,76.44
2017-01-28T04:05:31.107Z,76.82
2017-01-28T04:06:11.637Z,75.74
2017-01-28T04:06:52.168Z,75.49
2017-01-28T04:07:32.702Z,76.12
2017-01-28T04:08:13.225Z,76.31
2017-01-28T04:08:53.760Z,76.12
2017-01-28T04:09:34.283Z,75.87
2017-01-28T04:10:14.814Z,75.45
2017-01-28T04:10:55.351Z,75.83
2017-01-28T04:11:35.876Z,75.74
2017-01-28T04:12:16.405Z,75.74
2017-01-28T04:12:56.940Z,75.45
2017-01-28T04:13:37.473Z,75.64
2017-01-28T04:14:18.009Z,75.55
2017-01-28T04:14:58.545Z,75.74
2017-01-28T04:15:39.073Z,75.55
2017-01-28T04:16:19.605Z,75.74
2017-01-28T04:17:00.157Z,75.55
2017-01-28T04:17:40.683Z,75.93
2017-01-28T04:18:21.222Z,76.02
2017-01-28T04:19:01.753Z,76.12
2017-01-28T04:19:42.278Z,75.93
2017-01-28T04:20:22.807Z,76.02
2017-01-28T04:21:03.354Z,76.12
2017-01-28T04:21:43.874Z,76.21
2017-01-28T04:22:24.406Z,76.12
2017-01-28T04:23:04.931Z,75.83
2017-01-28T04:23:45.461Z,76.31
2017-01-28T04:24:25.995Z,76.31
2017-01-28T04:25:06.527Z,76.78
2017-01-28T04:25:47.048Z,76.12
2017-01-28T04:26:27.604Z,75.64
2017-01-28T04:27:08.135Z,76.21
2017-01-28T04:27:48.666Z,75.36
2017-01-28T04:28:29.197Z,76.97
2017-01-28T04:29:09.731Z,76.21
2017-01-28T04:29:50.263Z,76.02
2017-01-28T04:30:30.788Z,76.21
2017-01-28T04:31:11.335Z,76.21
2017-01-28T04:31:51.856Z,76.12
2017-01-28T04:32:32.393Z,75.93
2017-01-28T04:33:12.977Z,76.31
2017-01-28T04:33:53.506Z,75.55
2017-01-28T04:34:34.023Z,75.93
2017-01-28T04:35:14.550Z,76.68
2017-01-28T04:35:55.082Z,76.31
2017-01-28T04:36:35.617Z,76.02
2017-01-28T04:37:16.146Z,76.12
2017-01-28T04:37:56.667Z,76.59
2017-01-28T04:38:37.193Z,76.21
2017-01-28T04:39:17.724Z,76.68
2017-01-28T04:39:58.263Z,76.59
2017-01-28T04:40:38.791Z,76.97
2017-01-28T04:41:19.322Z,76.4
2017-01-28T04:41:59.842Z,76.12
2017-01-28T04:42:40.370Z,76.31
2017-01-28T04:43:20.899Z,76.31
2017-01-28T04:44:01.438Z,76.4
2017-01-28T04:44:41.997Z,76.4
2017-01-28T04:45:22.494Z,76.21
2017-01-28T04:46:03.025Z,76.31
2017-01-28T04:46:43.551Z,76.31
2017-01-28T04:47:24.086Z,76.21
2017-01-28T04:48:04.621Z,76.12
2017-01-28T04:48:45.147Z,76.21
2017-01-28T04:49:25.676Z,76.02
2017-01-28T04:50:06.212Z,76.31
2017-01-28T04:50:46.748Z,76.15
2017-01-28T04:51:27.284Z,76.02
2017-01-28T04:52:07.821Z,76.15
2017-01-28T04:52:48.385Z,76.31
2017-01-28T04:53:28.921Z,75.93
2017-01-28T04:54:09.451Z,76.34
2017-01-28T04:54:49.984Z,76.12
2017-01-28T04:55:30.517Z,76.31
2017-01-28T04:56:11.052Z,76.34
2017-01-28T04:56:51.589Z,75.93
2017-01-28T04:57:32.129Z,76.02
2017-01-28T04:58:12.640Z,75.64
2017-01-28T04:58:53.173Z,76.4
2017-01-28T04:59:33.712Z,76.78
2017-01-28T05:00:14.249Z,76.12
2017-01-28T05:00:54.769Z,76.5
2017-01-28T05:01:35.328Z,76.68
2017-01-28T05:02:15.858Z,76.59
2017-01-28T05:02:56.385Z,76.78
2017-01-28T05:03:36.911Z,76.02
2017-01-28T05:04:17.454Z,76.21
2017-01-28T05:04:57.984Z,76.02
2017-01-28T05:05:38.511Z,76.12
2017-01-28T05:06:19.043Z,76.21
2017-01-28T05:06:59.593Z,76.12
2017-01-28T05:07:40.123Z,76.5
2017-01-28T05:08:20.658Z,76.59
2017-01-28T05:09:01.197Z,76.78
2017-01-28T05:09:41.729Z,76.59
2017-01-28T05:10:22.261Z,76.78
2017-01-28T05:11:02.793Z,76.59
2017-01-28T05:11:43.333Z,76.87
2017-01-28T05:12:23.872Z,76.87
2017-01-28T05:13:04.408Z,76.87
2017-01-28T05:13:44.942Z,76.78
2017-01-28T05:14:25.478Z,77.25
2017-01-28T05:15:06.013Z,77.25
2017-01-28T05:15:46.558Z,77.44
2017-01-28T05:16:27.073Z,77.53
2017-01-28T05:17:07.617Z,77.91
2017-01-28T05:17:48.152Z,77.44
2017-01-28T05:18:28.689Z,77.63
2017-01-28T05:19:09.221Z,77.34
2017-01-28T05:19:49.764Z,77.63
2017-01-28T05:20:30.286Z,77.72
2017-01-28T05:21:10.806Z,77.91
2017-01-28T05:21:51.342Z,77.82
2017-01-28T05:22:31.871Z,77.91
2017-01-28T05:23:12.398Z,78.29
2017-01-28T05:23:52.930Z,77.91
2017-01-28T05:24:33.467Z,78.01
2017-01-28T05:25:13.997Z,77.91
2017-01-28T05:25:54.531Z,78.29
2017-01-28T05:26:35.069Z,78.1
2017-01-28T05:27:15.605Z,78.29
2017-01-28T05:27:56.130Z,78.2
2017-01-28T05:28:36.662Z,78.48
2017-01-28T05:29:17.198Z,78.39
2017-01-28T05:29:57.734Z,78.67
2017-01-28T05:30:38.269Z,78.76
2017-01-28T05:31:18.798Z,78.39
2017-01-28T05:31:59.360Z,78.76
2017-01-28T05:32:39.876Z,78.58
2017-01-28T05:33:20.412Z,78.67
2017-01-28T05:34:00.951Z,78.58
2017-01-28T05:34:41.474Z,78.67
2017-01-28T05:35:21.994Z,78.29
2017-01-28T05:36:02.529Z,78.29
2017-01-28T05:36:43.060Z,79.14
2017-01-28T05:37:23.584Z,78.58
2017-01-28T05:38:04.124Z,79.14
2017-01-28T05:38:44.654Z,79.24
2017-01-28T05:39:25.189Z,79.05
2017-01-28T05:40:05.716Z,79.14
2017-01-28T05:40:46.254Z,78.95
2017-01-28T05:41:26.785Z,79.24
2017-01-28T05:42:07.314Z,79.33
2017-01-28T05:42:47.845Z,79.24
2017-01-28T05:43:28.385Z,78.86
2017-01-28T05:44:08.912Z,79.43
2017-01-28T05:44:49.435Z,79.43
2017-01-28T05:45:29.967Z,79.24
2017-01-28T05:46:10.492Z,79.99
2017-01-28T05:46:51.014Z,79.71
2017-01-28T05:47:31.556Z,79.61
2017-01-28T05:48:12.077Z,79.71
2017-01-28T05:48:52.608Z,79.52
2017-01-28T05:49:33.145Z,79.61
2017-01-28T05:50:13.690Z,80.27
2017-01-28T05:50:54.210Z,80.27
2017-01-28T05:51:34.741Z,80.08
2017-01-28T05:52:15.284Z,79.9
2017-01-28T05:52:55.796Z,80.18
2017-01-28T05:53:36.334Z,79.99
2017-01-28T05:54:16.869Z,80.56
2017-01-28T05:54:57.404Z,80.37
2017-01-28T05:55:37.934Z,80.37
2017-01-28T05:56:18.474Z,80.37
2017-01-28T05:56:58.998Z,80.37
2017-01-28T05:57:39.542Z,80.37
2017-01-28T05:58:20.072Z,79.9
2017-01-28T05:59:00.608Z,80.37
2017-01-28T05:59:41.141Z,80.37
2017-01-28T06:00:21.670Z,80.37
2017-01-28T06:01:02.205Z,80.46
2017-01-28T06:01:42.755Z,80.46
2017-01-28T06:02:23.291Z,80.56
2017-01-28T06:03:03.816Z,79.99
2017-01-28T06:03:44.361Z,80.46
2017-01-28T06:04:24.896Z,80.37
2017-01-28T06:05:05.428Z,79.99
2017-01-28T06:05:45.963Z,80.56
2017-01-28T06:06:26.498Z,80.56
2017-01-28T06:07:07.028Z,80.37
2017-01-28T06:07:47.554Z,80.46
2017-01-28T06:08:28.082Z,80.37
2017-01-28T06:09:08.609Z,80.46
2017-01-28T06:09:49.147Z,80.08
2017-01-28T06:10:29.680Z,79.99
2017-01-28T06:11:10.210Z,80.08
2017-01-28T06:11:50.751Z,80.08
2017-01-28T06:12:31.303Z,80.18
2017-01-28T06:13:11.814Z,79.99
2017-01-28T06:13:52.350Z,79.99
2017-01-28T06:14:32.879Z,79.99
2017-01-28T06:15:13.406Z,80.27
2017-01-28T06:15:53.923Z,80.46
2017-01-28T06:16:34.455Z,80.08
2017-01-28T06:17:15.000Z,80.27
2017-01-28T06:17:55.536Z,80.18
2017-01-28T06:18:36.070Z,79.9
2017-01-28T06:19:16.636Z,80.18
2017-01-28T06:19:57.162Z,79.9
2017-01-28T06:20:37.689Z,79.9
2017-01-28T06:21:18.227Z,79.99
2017-01-28T06:21:58.766Z,80.37
2017-01-28T06:22:39.392Z,80.37
2017-01-28T06:23:19.924Z,79.99
2017-01-28T06:24:00.458Z,79.99
2017-01-28T06:24:40.994Z,79.99
2017-01-28T06:25:21.521Z,80.08
2017-01-28T06:26:02.062Z,80.37
2017-01-28T06:26:42.594Z,80.46
2017-01-28T06:27:23.126Z,80.27
2017-01-28T06:28:03.645Z,80.27
2017-01-28T06:28:44.175Z,80.08
2017-01-28T06:29:24.712Z,80.46
2017-01-28T06:30:05.245Z,80.56
2017-01-28T06:30:45.770Z,80.46
2017-01-28T06:31:26.309Z,80.65
2017-01-28T06:32:06.858Z,80.56
2017-01-28T06:32:47.370Z,80.56
2017-01-28T06:33:27.896Z,80.37
2017-01-28T06:34:08.430Z,80.75
2017-01-28T06:34:48.951Z,80.62
2017-01-28T06:35:29.478Z,80.62
2017-01-28T06:36:10.008Z,80.9
2017-01-28T06:36:50.534Z,81.09
2017-01-28T06:37:31.069Z,80.8
2017-01-28T06:38:11.603Z,80.52
2017-01-28T06:38:52.137Z,80.71
2017-01-28T06:39:32.671Z,80.52
2017-01-28T06:40:13.201Z,81.09
2017-01-28T06:40:53.733Z,81.09
2017-01-28T06:41:34.269Z,80.99
2017-01-28T06:42:14.791Z,80.71
2017-01-28T06:42:55.324Z,81.09
2017-01-28T06:43:35.866Z,80.71
2017-01-28T06:44:16.399Z,81.18
2017-01-28T06:44:56.926Z,80.99
2017-01-28T06:45:37.448Z,80.9
2017-01-28T06:46:17.982Z,80.8
2017-01-28T06:46:58.519Z,81.18
2017-01-28T06:47:39.054Z,81.09
2017-01-28T06:48:19.587Z,81.09
2017-01-28T06:49:00.116Z,80.8
2017-01-28T06:49:40.652Z,80.99
2017-01-28T06:50:21.187Z,81.37
2017-01-28T06:51:01.724Z,81.46
2017-01-28T06:51:42.255Z,81.27
2017-01-28T06:52:22.795Z,81.37
2017-01-28T06:53:03.316Z,81.32
2017-01-28T06:53:43.867Z,81.27
2017-01-28T06:54:24.391Z,81.56
2017-01-28T06:55:04.925Z,81.56
2017-01-28T06:55:45.452Z,81.37
2017-01-28T06:56:25.990Z,80.94
2017-01-28T06:57:06.514Z,80.75
2017-01-28T06:57:47.067Z,81.03
2017-01-28T06:58:27.571Z,80.75
2017-01-28T06:59:08.087Z,80.84
2017-01-28T06:59:48.624Z,80.84
2017-01-28T07:00:29.151Z,80.94
2017-01-28T07:01:09.692Z,80.94
2017-01-28T07:01:50.221Z,80.75
2017-01-28T07:02:30.755Z,80.94
2017-01-28T07:03:11.285Z,81.03
2017-01-28T07:03:51.830Z,80.75
2017-01-28T07:04:32.346Z,80.75
2017-01-28T07:05:12.881Z,80.84
2017-01-28T07:05:53.416Z,80.94
2017-01-28T07:06:33.967Z,80.56
2017-01-28T07:07:14.474Z,80.75
2017-01-28T07:07:55.010Z,80.75
2017-01-28T07:08:35.540Z,80.75
2017-01-28T07:09:16.083Z,80.27
2017-01-28T07:09:56.623Z,80.37
2017-01-28T07:10:37.150Z,80.46
2017-01-28T07:11:17.693Z,80.56
2017-01-28T07:11:58.203Z,80.27
2017-01-28T07:12:38.750Z,79.99
2017-01-28T07:13:19.285Z,79.9
2017-01-28T07:13:59.815Z,80.08
2017-01-28T07:14:40.335Z,80.18
2017-01-28T07:15:20.874Z,80.18
2017-01-28T07:16:01.404Z,80.37
2017-01-28T07:16:41.939Z,79.71
2017-01-28T07:17:22.473Z,79.99
2017-01-28T07:18:03.002Z,80.08
2017-01-28T07:18:43.527Z,80.27
2017-01-28T07:19:24.065Z,80.08
2017-01-28T07:20:04.610Z,80.08
2017-01-28T07:20:45.142Z,79.71
2017-01-28T07:21:25.669Z,79.71
2017-01-28T07:22:06.218Z,79.61
2017-01-28T07:22:46.738Z,79.8
2017-01-28T07:23:27.257Z,79.9
2017-01-28T07:24:07.777Z,79.71
2017-01-28T07:24:48.308Z,79.61
2017-01-28T07:25:28.848Z,79.71
2017-01-28T07:26:09.380Z,79.61
2017-01-28T07:26:49.904Z,79.52
2017-01-28T07:27:30.432Z,79.71
2017-01-28T07:28:10.971Z,79.9
2017-01-28T07:28:51.596Z,79.71
2017-01-28T07:29:32.058Z,79.61
2017-01-28T07:30:12.565Z,79.14
2017-01-28T07:30:53.081Z,79.05
2017-01-28T07:31:33.615Z,78.95
2017-01-28T07:32:14.191Z,78.86
2017-01-28T07:32:54.717Z,78.48
2017-01-28T07:33:35.241Z,78.67
2017-01-28T07:34:15.768Z,78.48
2017-01-28T07:34:56.283Z,77.91
2017-01-28T07:35:36.900Z,78.01
2017-01-28T07:36:17.429Z,77.53
2017-01-28T07:36:57.963Z,77.44
2017-01-28T07:37:38.457Z,77.34
2017-01-28T07:38:19.015Z,77.72
2017-01-28T07:38:59.545Z,77.25
2017-01-28T07:39:40.081Z,76.97
2017-01-28T07:40:20.612Z,77.15
2017-01-28T07:41:01.150Z,76.78
2017-01-28T07:41:41.674Z,76.63
2017-01-28T07:42:22.218Z,76.78
2017-01-28T07:43:02.745Z,76.44
2017-01-28T07:43:43.281Z,76.53
2017-01-28T07:44:23.835Z,76.72
2017-01-28T07:45:04.375Z,76.25
2017-01-28T07:45:44.919Z,76.15
2017-01-28T07:46:25.440Z,75.87
2017-01-28T07:47:05.979Z,75.87
2017-01-28T07:47:46.497Z,76.15
2017-01-28T07:48:27.030Z,75.49
2017-01-28T07:49:07.546Z,75.78
2017-01-28T07:49:48.061Z,75.49
2017-01-28T07:50:28.591Z,75.78
2017-01-28T07:51:09.121Z,75.78
2017-01-28T07:51:49.668Z,75.21
2017-01-28T07:52:30.199Z,75.31
2017-01-28T07:53:10.727Z,75.59
2017-01-28T07:53:51.297Z,75.02
2017-01-28T07:54:31.849Z,75.02
2017-01-28T07:55:12.409Z,75.02
2017-01-28T07:55:52.933Z,75.12
2017-01-28T07:56:33.485Z,74.74
2017-01-28T07:57:14.014Z,75.12
2017-01-28T07:57:54.538Z,75.02
2017-01-28T07:58:35.068Z,74.64
2017-01-28T07:59:15.585Z,75.31
2017-01-28T07:59:56.127Z,74.64
2017-01-28T08:00:36.663Z,74.74
2017-01-28T08:01:17.200Z,75.02
2017-01-28T08:01:57.757Z,75.21
2017-01-28T08:02:38.292Z,75.21
2017-01-28T08:03:18.827Z,75.02
2017-01-28T08:03:59.393Z,75.21
2017-01-28T08:04:39.917Z,75.4
2017-01-28T08:05:20.439Z,74.83
2017-01-28T08:06:01.010Z,75.02
2017-01-28T08:06:41.523Z,74.55
2017-01-28T08:07:22.051Z,74.74
2017-01-28T08:08:02.597Z,74.64
2017-01-28T08:08:43.136Z,74.45
2017-01-28T08:09:23.680Z,74.45
2017-01-28T08:10:04.220Z,74.55
2017-01-28T08:10:44.744Z,74.74
2017-01-28T08:11:25.282Z,73.98
2017-01-28T08:12:05.818Z,74.55
2017-01-28T08:12:46.350Z,74.36
2017-01-28T08:13:26.883Z,74.36
2017-01-28T08:14:07.426Z,74.36
2017-01-28T08:14:47.945Z,74.17
2017-01-28T08:15:28.520Z,74.26
2017-01-28T08:16:09.008Z,73.79
2017-01-28T08:16:49.554Z,73.79
2017-01-28T08:17:30.086Z,73.88
2017-01-28T08:18:10.621Z,73.32
2017-01-28T08:18:51.161Z,73.6
2017-01-28T08:19:31.686Z,73.32
2017-01-28T08:20:12.186Z,73.32
2017-01-28T08:20:52.790Z,73.41
2017-01-28T08:21:33.307Z,73.22
2017-01-28T08:22:13.842Z,73.03
2017-01-28T08:22:54.366Z,73.32
2017-01-28T08:23:34.898Z,73.13
2017-01-28T08:24:15.429Z,72.75
2017-01-28T08:24:55.961Z,72.47
2017-01-28T08:25:36.490Z,72.66
2017-01-28T08:26:17.026Z,71.99
2017-01-28T08:26:57.548Z,72.28
2017-01-28T08:27:38.066Z,72.18
2017-01-28T08:28:18.606Z,72.09
2017-01-28T08:28:59.136Z,72.47
2017-01-28T08:29:39.650Z,72.28
2017-01-28T08:30:20.179Z,72.28
2017-01-28T08:31:00.708Z,72.37
2017-01-28T08:31:41.248Z,72.47
2017-01-28T08:32:21.783Z,72.18
2017-01-28T08:33:02.307Z,72.28
2017-01-28T08:33:42.844Z,72.28
2017-01-28T08:34:23.378Z,72.28
2017-01-28T08:35:03.912Z,72.28
2017-01-28T08:35:44.451Z,72.18
2017-01-28T08:36:24.983Z,72.28
2017-01-28T08:37:05.522Z,72.28
2017-01-28T08:37:46.052Z,72.09
2017-01-28T08:38:26.583Z,72.28
2017-01-28T08:39:07.117Z,72.47
2017-01-28T08:39:47.655Z,71.9
2017-01-28T08:40:28.191Z,71.8
2017-01-28T08:41:08.732Z,71.99
2017-01-28T08:41:49.246Z,71.61
2017-01-28T08:42:29.786Z,72.18
2017-01-28T08:43:10.385Z,72.18
2017-01-28T08:43:50.911Z,71.99
2017-01-28T08:44:31.449Z,71.9
2017-01-28T08:45:11.974Z,71.8
2017-01-28T08:45:52.506Z,71.99
2017-01-28T08:46:33.039Z,72.75
2017-01-28T08:47:13.563Z,71.99
2017-01-28T08:47:54.079Z,71.9
2017-01-28T08:48:34.595Z,71.9
2017-01-28T08:49:15.113Z,72.09
2017-01-28T08:49:55.642Z,72.18
2017-01-28T08:50:36.176Z,71.71
2017-01-28T08:51:16.712Z,71.71
2017-01-28T08:51:57.248Z,71.71
2017-01-28T08:52:37.779Z,71.42
2017-01-28T08:53:18.300Z,71.42
2017-01-28T08:53:58.868Z,71.33
2017-01-28T08:54:39.384Z,71.33
2017-01-28T08:55:19.948Z,71.36
2017-01-28T08:56:00.474Z,71.42
2017-01-28T08:56:41.002Z,70.79
2017-01-28T08:57:21.538Z,71.08
2017-01-28T08:58:02.069Z,70.89
2017-01-28T08:58:42.580Z,70.89
2017-01-28T08:59:23.102Z,70.79
2017-01-28T09:00:03.638Z,70.98
2017-01-28T09:00:44.345Z,70.89
2017-01-28T09:01:24.700Z,70.98
2017-01-28T09:02:05.238Z,70.79
2017-01-28T09:02:45.778Z,70.51
2017-01-28T09:03:26.354Z,70.61
2017-01-28T09:04:06.867Z,70.32
2017-01-28T09:04:47.401Z,70.51
2017-01-28T09:05:27.931Z,70.61
2017-01-28T09:06:08.472Z,70.61
2017-01-28T09:06:49.016Z,70.42
2017-01-28T09:07:29.540Z,70.7
2017-01-28T09:08:10.075Z,70.7
2017-01-28T09:08:50.613Z,70.42
2017-01-28T09:09:31.154Z,70.32
2017-01-28T09:10:11.676Z,69.85
2017-01-28T09:10:52.205Z,69.79
2017-01-28T09:11:32.733Z,69.41
2017-01-28T09:12:13.269Z,69.22
2017-01-28T09:12:53.791Z,69.03
2017-01-28T09:13:34.323Z,68.94
2017-01-28T09:14:14.857Z,69.22
2017-01-28T09:14:55.390Z,68.94
2017-01-28T09:15:35.939Z,68.4
2017-01-28T09:16:16.441Z,68.31